sensor_id;sensor_type;location;lat;lon;timestamp;temperature;humidity
21115;DHT22;10715;48.546;9.896;2024-02-23T00:01:46;6.70;99.90
21115;DHT22;10715;48.546;9.896;2024-02-23T00:04:12;6.60;99.90
21115;DHT22;10715;48.546;9.896;2024-02-23T00:06:38;6.60;99.90
21115;DHT22;10715;48.546;9.896;2024-02-23T00:09:04;6.60;99.90
21115;DHT22;10715;48.546;9.896;2024-02-23T00:11:31;6.60;99.90
21115;DHT22;10715;48.546;9.896;2024-02-23T00:13:59;6.60;99.90
21115;DHT22;10715;48.546;9.896;2024-02-23T00:16:25;6.60;99.90
21115;DHT22;10715;48.546;9.896;2024-02-23T00:18:52;6.60;99.90
21115;DHT22;10715;48.546;9.896;2024-02-23T00:21:17;6.50;99.90
21115;DHT22;10715;48.546;9.896;2024-02-23T00:23:43;6.40;99.90
21115;DHT22;10715;48.546;9.896;2024-02-23T00:26:09;6.20;99.90
21115;DHT22;10715;48.546;9.896;2024-02-23T00:28:34;5.90;99.90
21115;DHT22;10715;48.546;9.896;2024-02-23T00:31:00;5.80;99.90
21115;DHT22;10715;48.546;9.896;2024-02-23T00:33:26;5.60;99.90
21115;DHT22;10715;48.546;9.896;2024-02-23T00:35:52;5.40;99.90
21115;DHT22;10715;48.546;9.896;2024-02-23T00:38:17;5.30;99.90
21115;DHT22;10715;48.546;9.896;2024-02-23T00:40:44;5.20;99.90
21115;DHT22;10715;48.546;9.896;2024-02-23T00:43:10;5.20;99.90
21115;DHT22;10715;48.546;9.896;2024-02-23T00:45:36;5.20;99.90
21115;DHT22;10715;48.546;9.896;2024-02-23T00:48:02;5.10;99.90
21115;DHT22;10715;48.546;9.896;2024-02-23T00:50:28;5.10;99.90
21115;DHT22;10715;48.546;9.896;2024-02-23T00:52:54;5.10;99.90
21115;DHT22;10715;48.546;9.896;2024-02-23T00:55:20;5.00;99.90
21115;DHT22;10715;48.546;9.896;2024-02-23T00:57:45;5.00;99.90
21115;DHT22;10715;48.546;9.896;2024-02-23T01:00:11;4.90;99.90
21115;DHT22;10715;48.546;9.896;2024-02-23T01:02:38;4.90;99.90
21115;DHT22;10715;48.546;9.896;2024-02-23T01:05:05;4.90;99.90
21115;DHT22;10715;48.546;9.896;2024-02-23T01:07:31;4.80;99.90
21115;DHT22;10715;48.546;9.896;2024-02-23T01:09:57;4.80;99.90
21115;DHT22;10715;48.546;9.896;2024-02-23T01:12:24;4.80;99.90
21115;DHT22;10715;48.546;9.896;2024-02-23T01:14:50;4.70;99.90
21115;DHT22;10715;48.546;9.896;2024-02-23T01:17:16;4.70;99.90
21115;DHT22;10715;48.546;9.896;2024-02-23T01:19:43;4.60;99.90
21115;DHT22;10715;48.546;9.896;2024-02-23T01:22:08;4.60;99.90
21115;DHT22;10715;48.546;9.896;2024-02-23T01:24:34;4.50;99.90
21115;DHT22;10715;48.546;9.896;2024-02-23T01:27:00;4.50;99.90
21115;DHT22;10715;48.546;9.896;2024-02-23T01:29:26;4.50;99.90
21115;DHT22;10715;48.546;9.896;2024-02-23T01:31:52;4.50;99.90
21115;DHT22;10715;48.546;9.896;2024-02-23T01:34:20;4.40;99.90
21115;DHT22;10715;48.546;9.896;2024-02-23T01:36:46;4.30;99.90
21115;DHT22;10715;48.546;9.896;2024-02-23T01:39:11;4.30;99.90
21115;DHT22;10715;48.546;9.896;2024-02-23T01:41:38;4.30;99.90
21115;DHT22;10715;48.546;9.896;2024-02-23T01:44:04;4.30;99.90
21115;DHT22;10715;48.546;9.896;2024-02-23T01:46:30;4.30;99.90
21115;DHT22;10715;48.546;9.896;2024-02-23T01:48:57;4.20;99.90
21115;DHT22;10715;48.546;9.896;2024-02-23T01:51:24;4.20;99.90
21115;DHT22;10715;48.546;9.896;2024-02-23T01:53:51;4.20;99.90
21115;DHT22;10715;48.546;9.896;2024-02-23T01:56:17;4.20;99.90
21115;DHT22;10715;48.546;9.896;2024-02-23T01:58:43;4.10;99.90
21115;DHT22;10715;48.546;9.896;2024-02-23T02:01:12;4.10;99.90
21115;DHT22;10715;48.546;9.896;2024-02-23T02:03:41;4.10;99.90
21115;DHT22;10715;48.546;9.896;2024-02-23T02:06:09;4.10;99.90
21115;DHT22;10715;48.546;9.896;2024-02-23T02:08:35;4.10;99.90
21115;DHT22;10715;48.546;9.896;2024-02-23T02:11:01;4.00;99.90
21115;DHT22;10715;48.546;9.896;2024-02-23T02:13:30;4.00;99.90
21115;DHT22;10715;48.546;9.896;2024-02-23T02:15:58;4.00;99.90
21115;DHT22;10715;48.546;9.896;2024-02-23T02:18:24;4.00;99.90
21115;DHT22;10715;48.546;9.896;2024-02-23T02:20:52;4.00;99.90
21115;DHT22;10715;48.546;9.896;2024-02-23T02:23:18;4.00;99.90
21115;DHT22;10715;48.546;9.896;2024-02-23T02:25:44;4.00;99.90
21115;DHT22;10715;48.546;9.896;2024-02-23T02:28:09;4.00;99.90
21115;DHT22;10715;48.546;9.896;2024-02-23T02:30:35;4.00;99.90
21115;DHT22;10715;48.546;9.896;2024-02-23T02:33:01;4.00;99.90
21115;DHT22;10715;48.546;9.896;2024-02-23T02:35:26;4.00;99.90
21115;DHT22;10715;48.546;9.896;2024-02-23T02:37:52;4.00;99.90
21115;DHT22;10715;48.546;9.896;2024-02-23T02:40:18;4.00;99.90
21115;DHT22;10715;48.546;9.896;2024-02-23T02:42:44;4.00;99.90
21115;DHT22;10715;48.546;9.896;2024-02-23T02:45:10;3.90;99.90
21115;DHT22;10715;48.546;9.896;2024-02-23T02:47:35;3.90;99.90
21115;DHT22;10715;48.546;9.896;2024-02-23T02:50:01;3.90;99.90
21115;DHT22;10715;48.546;9.896;2024-02-23T02:52:27;3.90;99.90
21115;DHT22;10715;48.546;9.896;2024-02-23T02:54:54;3.90;99.90
21115;DHT22;10715;48.546;9.896;2024-02-23T02:57:19;3.90;99.90
21115;DHT22;10715;48.546;9.896;2024-02-23T02:59:45;3.80;99.90
21115;DHT22;10715;48.546;9.896;2024-02-23T03:02:12;3.80;99.90
21115;DHT22;10715;48.546;9.896;2024-02-23T03:04:37;3.80;99.90
21115;DHT22;10715;48.546;9.896;2024-02-23T03:07:03;3.80;99.90
21115;DHT22;10715;48.546;9.896;2024-02-23T03:09:29;3.80;99.90
21115;DHT22;10715;48.546;9.896;2024-02-23T03:11:54;3.80;99.90
21115;DHT22;10715;48.546;9.896;2024-02-23T03:14:20;3.80;99.90
21115;DHT22;10715;48.546;9.896;2024-02-23T03:16:46;3.70;99.90
21115;DHT22;10715;48.546;9.896;2024-02-23T03:19:13;3.70;99.90
21115;DHT22;10715;48.546;9.896;2024-02-23T03:21:39;3.70;99.90
21115;DHT22;10715;48.546;9.896;2024-02-23T03:24:04;3.70;99.90
21115;DHT22;10715;48.546;9.896;2024-02-23T03:26:30;3.70;99.90
21115;DHT22;10715;48.546;9.896;2024-02-23T03:28:56;3.70;99.90
21115;DHT22;10715;48.546;9.896;2024-02-23T03:31:21;3.70;99.90
21115;DHT22;10715;48.546;9.896;2024-02-23T03:33:47;3.70;99.90
21115;DHT22;10715;48.546;9.896;2024-02-23T03:36:13;3.70;99.90
21115;DHT22;10715;48.546;9.896;2024-02-23T03:38:38;3.70;99.90
21115;DHT22;10715;48.546;9.896;2024-02-23T03:41:04;3.60;99.90
21115;DHT22;10715;48.546;9.896;2024-02-23T03:43:30;3.60;99.90
21115;DHT22;10715;48.546;9.896;2024-02-23T03:45:56;3.60;99.90
21115;DHT22;10715;48.546;9.896;2024-02-23T03:48:21;3.60;99.90
21115;DHT22;10715;48.546;9.896;2024-02-23T03:50:47;3.60;99.90
21115;DHT22;10715;48.546;9.896;2024-02-23T03:53:13;3.60;99.90
21115;DHT22;10715;48.546;9.896;2024-02-23T03:55:38;3.60;99.90
21115;DHT22;10715;48.546;9.896;2024-02-23T03:58:04;3.60;99.90
21115;DHT22;10715;48.546;9.896;2024-02-23T04:00:30;3.60;99.90
21115;DHT22;10715;48.546;9.896;2024-02-23T04:02:56;3.60;99.90
21115;DHT22;10715;48.546;9.896;2024-02-23T04:05:21;3.50;99.90
21115;DHT22;10715;48.546;9.896;2024-02-23T04:07:47;3.50;99.90
21115;DHT22;10715;48.546;9.896;2024-02-23T04:10:13;3.50;99.90
21115;DHT22;10715;48.546;9.896;2024-02-23T04:12:42;3.50;99.90
21115;DHT22;10715;48.546;9.896;2024-02-23T04:15:09;3.50;99.90
21115;DHT22;10715;48.546;9.896;2024-02-23T04:17:35;3.50;99.90
21115;DHT22;10715;48.546;9.896;2024-02-23T04:20:06;3.40;99.90
21115;DHT22;10715;48.546;9.896;2024-02-23T04:22:32;3.40;99.90
21115;DHT22;10715;48.546;9.896;2024-02-23T04:24:57;3.40;99.90
21115;DHT22;10715;48.546;9.896;2024-02-23T04:27:23;3.40;99.90
21115;DHT22;10715;48.546;9.896;2024-02-23T04:29:49;3.40;99.90
21115;DHT22;10715;48.546;9.896;2024-02-23T04:32:15;3.40;99.90
21115;DHT22;10715;48.546;9.896;2024-02-23T04:34:40;3.30;99.90
21115;DHT22;10715;48.546;9.896;2024-02-23T04:37:06;3.30;99.90
21115;DHT22;10715;48.546;9.896;2024-02-23T04:39:32;3.30;99.90
21115;DHT22;10715;48.546;9.896;2024-02-23T04:41:58;3.30;99.90
21115;DHT22;10715;48.546;9.896;2024-02-23T04:44:24;3.20;99.90
21115;DHT22;10715;48.546;9.896;2024-02-23T04:46:50;3.20;99.90
21115;DHT22;10715;48.546;9.896;2024-02-23T04:49:15;3.20;99.90
21115;DHT22;10715;48.546;9.896;2024-02-23T04:51:41;3.20;99.90
21115;DHT22;10715;48.546;9.896;2024-02-23T04:54:07;3.20;99.90
21115;DHT22;10715;48.546;9.896;2024-02-23T04:56:33;3.20;99.90
21115;DHT22;10715;48.546;9.896;2024-02-23T04:59:01;3.20;99.90
21115;DHT22;10715;48.546;9.896;2024-02-23T05:01:27;3.20;99.90
21115;DHT22;10715;48.546;9.896;2024-02-23T05:03:52;3.10;99.90
21115;DHT22;10715;48.546;9.896;2024-02-23T05:06:18;3.10;99.90
21115;DHT22;10715;48.546;9.896;2024-02-23T05:08:44;3.10;99.90
21115;DHT22;10715;48.546;9.896;2024-02-23T05:11:09;3.10;99.90
21115;DHT22;10715;48.546;9.896;2024-02-23T05:13:35;3.10;99.90
21115;DHT22;10715;48.546;9.896;2024-02-23T05:16:03;3.10;99.90
21115;DHT22;10715;48.546;9.896;2024-02-23T05:18:29;3.00;99.90
21115;DHT22;10715;48.546;9.896;2024-02-23T05:20:54;3.00;99.90
21115;DHT22;10715;48.546;9.896;2024-02-23T05:23:20;3.00;99.90
21115;DHT22;10715;48.546;9.896;2024-02-23T05:25:46;3.00;99.90
21115;DHT22;10715;48.546;9.896;2024-02-23T05:28:11;3.00;99.90
21115;DHT22;10715;48.546;9.896;2024-02-23T05:30:37;3.00;99.90
21115;DHT22;10715;48.546;9.896;2024-02-23T05:33:03;3.00;99.90
21115;DHT22;10715;48.546;9.896;2024-02-23T05:35:29;3.00;99.90
21115;DHT22;10715;48.546;9.896;2024-02-23T05:37:55;3.00;99.90
21115;DHT22;10715;48.546;9.896;2024-02-23T05:40:21;2.90;99.90
21115;DHT22;10715;48.546;9.896;2024-02-23T05:42:47;2.90;99.90
21115;DHT22;10715;48.546;9.896;2024-02-23T05:45:12;2.90;99.90
21115;DHT22;10715;48.546;9.896;2024-02-23T05:47:39;2.90;99.90
21115;DHT22;10715;48.546;9.896;2024-02-23T05:50:05;2.90;99.90
21115;DHT22;10715;48.546;9.896;2024-02-23T05:52:32;2.80;99.90
21115;DHT22;10715;48.546;9.896;2024-02-23T05:54:58;2.80;99.90
21115;DHT22;10715;48.546;9.896;2024-02-23T05:57:26;2.80;99.90
21115;DHT22;10715;48.546;9.896;2024-02-23T05:59:52;2.80;99.90
21115;DHT22;10715;48.546;9.896;2024-02-23T06:02:18;2.80;99.90
21115;DHT22;10715;48.546;9.896;2024-02-23T06:04:43;2.70;99.90
21115;DHT22;10715;48.546;9.896;2024-02-23T06:07:09;2.70;99.90
21115;DHT22;10715;48.546;9.896;2024-02-23T06:09:35;2.70;99.90
21115;DHT22;10715;48.546;9.896;2024-02-23T06:12:01;2.60;99.90
21115;DHT22;10715;48.546;9.896;2024-02-23T06:14:26;2.60;99.90
21115;DHT22;10715;48.546;9.896;2024-02-23T06:16:52;2.60;99.90
21115;DHT22;10715;48.546;9.896;2024-02-23T06:19:18;2.50;99.90
21115;DHT22;10715;48.546;9.896;2024-02-23T06:21:48;2.50;99.90
21115;DHT22;10715;48.546;9.896;2024-02-23T06:24:15;2.50;99.90
21115;DHT22;10715;48.546;9.896;2024-02-23T06:26:41;2.50;99.90
21115;DHT22;10715;48.546;9.896;2024-02-23T06:29:08;2.50;99.90
21115;DHT22;10715;48.546;9.896;2024-02-23T06:31:37;2.50;99.90
21115;DHT22;10715;48.546;9.896;2024-02-23T06:34:04;2.50;99.90
21115;DHT22;10715;48.546;9.896;2024-02-23T06:36:30;2.40;99.90
21115;DHT22;10715;48.546;9.896;2024-02-23T06:38:55;2.40;99.90
21115;DHT22;10715;48.546;9.896;2024-02-23T06:41:21;2.40;99.90
21115;DHT22;10715;48.546;9.896;2024-02-23T06:43:47;2.40;99.90
21115;DHT22;10715;48.546;9.896;2024-02-23T06:46:13;2.40;99.90
21115;DHT22;10715;48.546;9.896;2024-02-23T06:48:38;2.30;99.90
21115;DHT22;10715;48.546;9.896;2024-02-23T06:51:05;2.30;99.90
21115;DHT22;10715;48.546;9.896;2024-02-23T06:53:34;2.40;99.90
21115;DHT22;10715;48.546;9.896;2024-02-23T06:56:00;2.30;99.90
21115;DHT22;10715;48.546;9.896;2024-02-23T06:58:26;2.30;99.90
21115;DHT22;10715;48.546;9.896;2024-02-23T07:00:52;2.30;99.90
21115;DHT22;10715;48.546;9.896;2024-02-23T07:03:18;2.30;99.90
21115;DHT22;10715;48.546;9.896;2024-02-23T07:05:43;2.30;99.90
21115;DHT22;10715;48.546;9.896;2024-02-23T07:08:10;2.40;99.90
21115;DHT22;10715;48.546;9.896;2024-02-23T07:10:36;2.40;99.90
21115;DHT22;10715;48.546;9.896;2024-02-23T07:13:02;2.40;99.90
21115;DHT22;10715;48.546;9.896;2024-02-23T07:15:27;2.40;99.90
21115;DHT22;10715;48.546;9.896;2024-02-23T07:17:53;2.40;99.90
21115;DHT22;10715;48.546;9.896;2024-02-23T07:20:19;2.40;99.90
21115;DHT22;10715;48.546;9.896;2024-02-23T07:22:46;2.40;99.90
21115;DHT22;10715;48.546;9.896;2024-02-23T07:25:15;2.50;99.90
21115;DHT22;10715;48.546;9.896;2024-02-23T07:27:41;2.50;99.90
21115;DHT22;10715;48.546;9.896;2024-02-23T07:30:07;2.50;99.90
21115;DHT22;10715;48.546;9.896;2024-02-23T07:32:33;2.50;99.90
21115;DHT22;10715;48.546;9.896;2024-02-23T07:34:59;2.60;99.90
21115;DHT22;10715;48.546;9.896;2024-02-23T07:37:26;2.60;99.90
21115;DHT22;10715;48.546;9.896;2024-02-23T07:39:53;2.60;99.90
21115;DHT22;10715;48.546;9.896;2024-02-23T07:42:18;2.60;99.90
21115;DHT22;10715;48.546;9.896;2024-02-23T07:44:45;2.60;99.90
21115;DHT22;10715;48.546;9.896;2024-02-23T07:47:11;2.60;99.90
21115;DHT22;10715;48.546;9.896;2024-02-23T07:49:37;2.60;99.90
21115;DHT22;10715;48.546;9.896;2024-02-23T07:52:03;2.60;99.90
21115;DHT22;10715;48.546;9.896;2024-02-23T07:54:29;2.80;99.90
21115;DHT22;10715;48.546;9.896;2024-02-23T07:56:55;2.70;99.90
21115;DHT22;10715;48.546;9.896;2024-02-23T07:59:22;2.70;99.90
21115;DHT22;10715;48.546;9.896;2024-02-23T08:01:48;2.70;99.90
21115;DHT22;10715;48.546;9.896;2024-02-23T08:04:14;2.70;99.90
21115;DHT22;10715;48.546;9.896;2024-02-23T08:06:41;2.70;99.90
21115;DHT22;10715;48.546;9.896;2024-02-23T08:09:08;2.70;99.90
21115;DHT22;10715;48.546;9.896;2024-02-23T08:11:34;2.80;99.90
21115;DHT22;10715;48.546;9.896;2024-02-23T08:13:59;2.80;99.90
21115;DHT22;10715;48.546;9.896;2024-02-23T08:16:26;2.80;99.90
21115;DHT22;10715;48.546;9.896;2024-02-23T08:18:52;2.80;99.90
21115;DHT22;10715;48.546;9.896;2024-02-23T08:21:18;2.80;99.90
21115;DHT22;10715;48.546;9.896;2024-02-23T08:23:44;2.90;99.90
21115;DHT22;10715;48.546;9.896;2024-02-23T08:26:10;2.90;99.90
21115;DHT22;10715;48.546;9.896;2024-02-23T08:28:36;2.90;99.90
21115;DHT22;10715;48.546;9.896;2024-02-23T08:31:02;2.90;99.90
21115;DHT22;10715;48.546;9.896;2024-02-23T08:33:27;2.90;99.90
21115;DHT22;10715;48.546;9.896;2024-02-23T08:35:54;2.90;99.90
21115;DHT22;10715;48.546;9.896;2024-02-23T08:38:20;3.00;99.90
21115;DHT22;10715;48.546;9.896;2024-02-23T08:40:46;3.00;99.90
21115;DHT22;10715;48.546;9.896;2024-02-23T08:43:12;3.00;99.90
21115;DHT22;10715;48.546;9.896;2024-02-23T08:45:38;3.00;99.90
21115;DHT22;10715;48.546;9.896;2024-02-23T08:48:04;3.00;99.90
21115;DHT22;10715;48.546;9.896;2024-02-23T08:50:30;3.00;99.90
21115;DHT22;10715;48.546;9.896;2024-02-23T08:52:56;3.00;99.90
21115;DHT22;10715;48.546;9.896;2024-02-23T08:55:22;3.00;99.90
21115;DHT22;10715;48.546;9.896;2024-02-23T08:57:48;3.00;99.90
21115;DHT22;10715;48.546;9.896;2024-02-23T09:00:14;3.00;99.90
21115;DHT22;10715;48.546;9.896;2024-02-23T09:02:40;3.10;99.90
21115;DHT22;10715;48.546;9.896;2024-02-23T09:05:09;3.10;99.90
21115;DHT22;10715;48.546;9.896;2024-02-23T09:07:35;3.10;99.90
21115;DHT22;10715;48.546;9.896;2024-02-23T09:10:02;3.10;99.90
21115;DHT22;10715;48.546;9.896;2024-02-23T09:12:30;3.10;99.90
21115;DHT22;10715;48.546;9.896;2024-02-23T09:14:56;3.10;99.90
21115;DHT22;10715;48.546;9.896;2024-02-23T09:17:28;3.10;99.90
21115;DHT22;10715;48.546;9.896;2024-02-23T09:19:53;3.10;99.90
21115;DHT22;10715;48.546;9.896;2024-02-23T09:22:19;3.10;99.90
21115;DHT22;10715;48.546;9.896;2024-02-23T09:24:45;3.20;99.90
21115;DHT22;10715;48.546;9.896;2024-02-23T09:27:11;3.20;99.90
21115;DHT22;10715;48.546;9.896;2024-02-23T09:29:37;3.20;99.90
21115;DHT22;10715;48.546;9.896;2024-02-23T09:32:03;3.20;99.90
21115;DHT22;10715;48.546;9.896;2024-02-23T09:34:30;3.20;99.90
21115;DHT22;10715;48.546;9.896;2024-02-23T09:36:56;3.20;99.90
21115;DHT22;10715;48.546;9.896;2024-02-23T09:39:22;3.20;99.90
21115;DHT22;10715;48.546;9.896;2024-02-23T09:41:50;3.30;99.90
21115;DHT22;10715;48.546;9.896;2024-02-23T09:44:18;3.30;99.90
21115;DHT22;10715;48.546;9.896;2024-02-23T09:46:46;3.30;99.90
21115;DHT22;10715;48.546;9.896;2024-02-23T09:49:11;3.30;99.90
21115;DHT22;10715;48.546;9.896;2024-02-23T09:51:39;3.30;99.90
21115;DHT22;10715;48.546;9.896;2024-02-23T09:54:05;3.30;99.90
21115;DHT22;10715;48.546;9.896;2024-02-23T09:56:31;3.40;99.90
21115;DHT22;10715;48.546;9.896;2024-02-23T09:59:02;3.40;99.90
21115;DHT22;10715;48.546;9.896;2024-02-23T10:01:29;3.40;99.90
21115;DHT22;10715;48.546;9.896;2024-02-23T10:04:02;3.40;99.90
21115;DHT22;10715;48.546;9.896;2024-02-23T10:06:32;3.40;99.90
21115;DHT22;10715;48.546;9.896;2024-02-23T10:08:57;3.40;99.90
21115;DHT22;10715;48.546;9.896;2024-02-23T10:11:24;3.40;99.90
21115;DHT22;10715;48.546;9.896;2024-02-23T10:13:51;3.50;99.90
21115;DHT22;10715;48.546;9.896;2024-02-23T10:16:20;3.50;99.90
21115;DHT22;10715;48.546;9.896;2024-02-23T10:18:47;3.50;99.90
21115;DHT22;10715;48.546;9.896;2024-02-23T10:21:16;3.50;99.90
21115;DHT22;10715;48.546;9.896;2024-02-23T10:23:44;3.50;99.90
21115;DHT22;10715;48.546;9.896;2024-02-23T10:26:10;3.50;99.90
21115;DHT22;10715;48.546;9.896;2024-02-23T10:28:39;3.50;99.90
21115;DHT22;10715;48.546;9.896;2024-02-23T10:31:05;3.60;99.90
21115;DHT22;10715;48.546;9.896;2024-02-23T10:33:31;3.60;99.90
21115;DHT22;10715;48.546;9.896;2024-02-23T10:36:01;3.60;99.90
21115;DHT22;10715;48.546;9.896;2024-02-23T10:38:27;3.60;99.90
21115;DHT22;10715;48.546;9.896;2024-02-23T10:40:55;3.60;99.90
21115;DHT22;10715;48.546;9.896;2024-02-23T10:43:29;3.60;99.90
21115;DHT22;10715;48.546;9.896;2024-02-23T10:45:57;3.60;99.90
21115;DHT22;10715;48.546;9.896;2024-02-23T10:48:23;3.60;99.90
21115;DHT22;10715;48.546;9.896;2024-02-23T10:50:50;3.60;99.90
21115;DHT22;10715;48.546;9.896;2024-02-23T10:53:16;3.60;99.90
21115;DHT22;10715;48.546;9.896;2024-02-23T10:55:45;3.60;99.90
21115;DHT22;10715;48.546;9.896;2024-02-23T10:58:11;3.60;99.90
21115;DHT22;10715;48.546;9.896;2024-02-23T11:00:39;3.60;99.90
21115;DHT22;10715;48.546;9.896;2024-02-23T11:03:06;3.60;99.90
21115;DHT22;10715;48.546;9.896;2024-02-23T11:05:33;3.60;99.90
21115;DHT22;10715;48.546;9.896;2024-02-23T11:07:59;3.60;99.90
21115;DHT22;10715;48.546;9.896;2024-02-23T11:10:25;3.70;99.90
21115;DHT22;10715;48.546;9.896;2024-02-23T11:13:00;3.70;99.90
21115;DHT22;10715;48.546;9.896;2024-02-23T11:15:30;3.70;99.90
21115;DHT22;10715;48.546;9.896;2024-02-23T11:17:59;3.70;99.90
21115;DHT22;10715;48.546;9.896;2024-02-23T11:20:34;3.70;99.90
21115;DHT22;10715;48.546;9.896;2024-02-23T11:23:00;3.70;99.90
21115;DHT22;10715;48.546;9.896;2024-02-23T11:25:29;3.70;99.90
21115;DHT22;10715;48.546;9.896;2024-02-23T11:27:55;3.70;99.90
21115;DHT22;10715;48.546;9.896;2024-02-23T11:30:21;3.70;99.90
21115;DHT22;10715;48.546;9.896;2024-02-23T11:32:47;3.70;99.90
21115;DHT22;10715;48.546;9.896;2024-02-23T11:35:15;3.70;99.90
21115;DHT22;10715;48.546;9.896;2024-02-23T11:37:48;3.70;99.90
21115;DHT22;10715;48.546;9.896;2024-02-23T11:40:17;3.70;99.90
21115;DHT22;10715;48.546;9.896;2024-02-23T11:42:43;3.80;99.90
21115;DHT22;10715;48.546;9.896;2024-02-23T11:45:10;3.80;99.90
21115;DHT22;10715;48.546;9.896;2024-02-23T11:47:39;3.80;99.90
21115;DHT22;10715;48.546;9.896;2024-02-23T11:50:09;3.80;99.90
21115;DHT22;10715;48.546;9.896;2024-02-23T11:52:39;3.80;99.90
21115;DHT22;10715;48.546;9.896;2024-02-23T11:55:06;3.80;99.90
21115;DHT22;10715;48.546;9.896;2024-02-23T11:57:35;3.80;99.90
21115;DHT22;10715;48.546;9.896;2024-02-23T12:00:04;3.80;99.90
21115;DHT22;10715;48.546;9.896;2024-02-23T12:02:32;3.80;99.90
21115;DHT22;10715;48.546;9.896;2024-02-23T12:04:58;3.90;99.90
21115;DHT22;10715;48.546;9.896;2024-02-23T12:07:23;3.90;99.90
21115;DHT22;10715;48.546;9.896;2024-02-23T12:09:52;3.90;99.90
21115;DHT22;10715;48.546;9.896;2024-02-23T12:12:18;3.90;99.90
21115;DHT22;10715;48.546;9.896;2024-02-23T12:14:44;3.90;99.90
21115;DHT22;10715;48.546;9.896;2024-02-23T12:17:10;3.90;99.90
21115;DHT22;10715;48.546;9.896;2024-02-23T12:19:39;3.90;99.90
21115;DHT22;10715;48.546;9.896;2024-02-23T12:22:08;4.00;99.90
21115;DHT22;10715;48.546;9.896;2024-02-23T12:24:35;4.00;99.90
21115;DHT22;10715;48.546;9.896;2024-02-23T12:27:01;4.00;99.90
21115;DHT22;10715;48.546;9.896;2024-02-23T12:29:26;4.00;99.90
21115;DHT22;10715;48.546;9.896;2024-02-23T12:32:06;4.00;99.90
21115;DHT22;10715;48.546;9.896;2024-02-23T12:34:32;4.00;99.90
21115;DHT22;10715;48.546;9.896;2024-02-23T12:36:58;4.00;99.90
21115;DHT22;10715;48.546;9.896;2024-02-23T12:39:24;4.10;99.90
21115;DHT22;10715;48.546;9.896;2024-02-23T12:41:50;4.10;99.90
21115;DHT22;10715;48.546;9.896;2024-02-23T12:44:16;4.10;99.90
21115;DHT22;10715;48.546;9.896;2024-02-23T12:46:42;4.10;99.90
21115;DHT22;10715;48.546;9.896;2024-02-23T12:49:07;4.10;99.90
21115;DHT22;10715;48.546;9.896;2024-02-23T12:51:33;4.10;99.90
21115;DHT22;10715;48.546;9.896;2024-02-23T12:53:59;4.20;99.90
21115;DHT22;10715;48.546;9.896;2024-02-23T12:56:25;4.20;99.90
21115;DHT22;10715;48.546;9.896;2024-02-23T12:58:52;4.20;99.90
21115;DHT22;10715;48.546;9.896;2024-02-23T13:01:19;4.20;99.90
21115;DHT22;10715;48.546;9.896;2024-02-23T13:03:45;4.20;99.90
21115;DHT22;10715;48.546;9.896;2024-02-23T13:06:10;4.20;99.90
21115;DHT22;10715;48.546;9.896;2024-02-23T13:08:36;4.20;99.90
21115;DHT22;10715;48.546;9.896;2024-02-23T13:11:04;4.20;99.90
21115;DHT22;10715;48.546;9.896;2024-02-23T13:13:30;4.20;99.90
21115;DHT22;10715;48.546;9.896;2024-02-23T13:15:56;4.20;99.90
21115;DHT22;10715;48.546;9.896;2024-02-23T13:18:22;4.30;99.90
21115;DHT22;10715;48.546;9.896;2024-02-23T13:20:48;4.30;99.90
21115;DHT22;10715;48.546;9.896;2024-02-23T13:23:14;4.20;99.90
21115;DHT22;10715;48.546;9.896;2024-02-23T13:25:41;4.30;99.90
21115;DHT22;10715;48.546;9.896;2024-02-23T13:28:08;4.30;99.90
21115;DHT22;10715;48.546;9.896;2024-02-23T13:30:35;4.30;99.90
21115;DHT22;10715;48.546;9.896;2024-02-23T13:33:01;4.30;99.90
21115;DHT22;10715;48.546;9.896;2024-02-23T13:35:27;4.30;99.90
21115;DHT22;10715;48.546;9.896;2024-02-23T13:40:22;4.30;99.90
21115;DHT22;10715;48.546;9.896;2024-02-23T13:42:48;4.30;99.90
21115;DHT22;10715;48.546;9.896;2024-02-23T13:45:18;4.40;99.90
21115;DHT22;10715;48.546;9.896;2024-02-23T13:48:02;4.40;99.90
21115;DHT22;10715;48.546;9.896;2024-02-23T13:50:27;4.40;99.90
21115;DHT22;10715;48.546;9.896;2024-02-23T13:52:54;4.40;99.90
21115;DHT22;10715;48.546;9.896;2024-02-23T13:55:19;4.40;99.90
21115;DHT22;10715;48.546;9.896;2024-02-23T13:57:47;4.40;99.90
21115;DHT22;10715;48.546;9.896;2024-02-23T14:00:13;4.40;99.90
21115;DHT22;10715;48.546;9.896;2024-02-23T14:02:39;4.50;99.90
21115;DHT22;10715;48.546;9.896;2024-02-23T14:05:07;4.50;99.90
21115;DHT22;10715;48.546;9.896;2024-02-23T14:07:34;4.50;99.90
21115;DHT22;10715;48.546;9.896;2024-02-23T14:10:00;4.50;99.90
21115;DHT22;10715;48.546;9.896;2024-02-23T14:12:26;4.50;99.90
21115;DHT22;10715;48.546;9.896;2024-02-23T14:14:52;4.50;99.90
21115;DHT22;10715;48.546;9.896;2024-02-23T14:17:17;4.50;99.90
21115;DHT22;10715;48.546;9.896;2024-02-23T14:19:43;4.50;99.90
21115;DHT22;10715;48.546;9.896;2024-02-23T14:22:09;4.60;99.90
21115;DHT22;10715;48.546;9.896;2024-02-23T14:24:35;4.60;99.90
21115;DHT22;10715;48.546;9.896;2024-02-23T14:27:01;4.60;99.90
21115;DHT22;10715;48.546;9.896;2024-02-23T14:29:27;4.60;99.90
21115;DHT22;10715;48.546;9.896;2024-02-23T14:31:53;4.60;99.90
21115;DHT22;10715;48.546;9.896;2024-02-23T14:34:18;4.60;99.90
21115;DHT22;10715;48.546;9.896;2024-02-23T14:36:45;4.60;99.90
21115;DHT22;10715;48.546;9.896;2024-02-23T14:39:11;4.60;99.90
21115;DHT22;10715;48.546;9.896;2024-02-23T14:41:39;4.60;99.90
21115;DHT22;10715;48.546;9.896;2024-02-23T14:44:04;4.60;99.90
21115;DHT22;10715;48.546;9.896;2024-02-23T14:46:30;4.60;99.90
21115;DHT22;10715;48.546;9.896;2024-02-23T14:48:56;4.60;99.90
21115;DHT22;10715;48.546;9.896;2024-02-23T14:51:21;4.60;99.90
21115;DHT22;10715;48.546;9.896;2024-02-23T14:53:47;4.60;99.90
21115;DHT22;10715;48.546;9.896;2024-02-23T14:56:13;4.70;99.90
21115;DHT22;10715;48.546;9.896;2024-02-23T14:58:39;4.70;99.90
21115;DHT22;10715;48.546;9.896;2024-02-23T15:01:05;4.70;99.90
21115;DHT22;10715;48.546;9.896;2024-02-23T15:03:31;4.70;99.90
21115;DHT22;10715;48.546;9.896;2024-02-23T15:05:58;4.60;99.90
21115;DHT22;10715;48.546;9.896;2024-02-23T15:08:24;4.60;99.90
21115;DHT22;10715;48.546;9.896;2024-02-23T15:10:50;4.60;99.90
21115;DHT22;10715;48.546;9.896;2024-02-23T15:13:17;4.60;99.90
21115;DHT22;10715;48.546;9.896;2024-02-23T15:15:43;4.60;99.90
21115;DHT22;10715;48.546;9.896;2024-02-23T15:18:09;4.60;99.90
21115;DHT22;10715;48.546;9.896;2024-02-23T15:20:35;4.60;99.90
21115;DHT22;10715;48.546;9.896;2024-02-23T15:23:01;4.60;99.90
21115;DHT22;10715;48.546;9.896;2024-02-23T15:25:27;4.60;99.90
21115;DHT22;10715;48.546;9.896;2024-02-23T15:27:53;4.60;99.90
21115;DHT22;10715;48.546;9.896;2024-02-23T15:30:23;4.60;99.90
21115;DHT22;10715;48.546;9.896;2024-02-23T15:32:49;4.60;99.90
21115;DHT22;10715;48.546;9.896;2024-02-23T15:35:15;4.60;99.90
21115;DHT22;10715;48.546;9.896;2024-02-23T15:37:41;4.60;99.90
21115;DHT22;10715;48.546;9.896;2024-02-23T15:40:07;4.60;99.90
21115;DHT22;10715;48.546;9.896;2024-02-23T15:42:33;4.60;99.90